Time;durP1;ratioP1;P1;durP2;ratioP2;P2;SDS_P1;SDS_P2;PMS_P1;PMS_P2;Temp;Humidity;BMP_temperature;BMP_pressure;BME280_temperature;BME280_humidity;BME280_pressure;Samples;Min_cycle;Max_cycle;Signal;HPM_P1;HPM_P2
2021/05/11 00:02:06;;;;;;;22.77;21.58;;;20.10;99.90;;;;;;5013619;28;20021;-54
2021/05/11 00:04:33;;;;;;;21.88;20.88;;;20.10;99.90;;;;;;5013562;28;20088;-52
2021/05/11 00:07:00;;;;;;;22.60;21.40;;;20.10;99.90;;;;;;5013468;28;20073;-51
2021/05/11 00:09:28;;;;;;;21.25;20.25;;;20.30;99.90;;;;;;5013411;28;20030;-52
2021/05/11 00:11:55;;;;;;;19.20;18.40;;;20.50;99.90;;;;;;5012064;28;20075;-51
2021/05/11 00:14:22;;;;;;;19.58;18.67;;;20.50;99.90;;;;;;5013362;28;20025;-55
2021/05/11 00:16:50;;;;;;;17.40;16.60;;;20.50;99.90;;;;;;5013642;28;20029;-53
2021/05/11 00:19:17;;;;;;;17.33;16.63;;;20.40;99.90;;;;;;5012960;28;20112;-57
2021/05/11 00:21:45;;;;;;;16.70;16.00;;;20.50;99.90;;;;;;5013267;28;20033;-51
2021/05/11 00:24:15;;;;;;;16.50;15.70;;;20.60;99.90;;;;;;5013247;28;20040;-54
2021/05/11 00:26:43;;;;;;;15.35;14.75;;;20.70;99.90;;;;;;5013155;28;20025;-52
2021/05/11 00:29:10;;;;;;;14.88;14.13;;;20.50;99.90;;;;;;5013133;28;20026;-56
2021/05/11 00:31:38;;;;;;;14.73;14.13;;;20.60;99.90;;;;;;5013209;28;20532;-50
2021/05/11 00:34:05;;;;;;;13.80;13.30;;;20.80;99.90;;;;;;5013131;28;20026;-54
2021/05/11 00:36:33;;;;;;;13.40;12.80;;;20.70;99.90;;;;;;5013085;28;20092;-52
2021/05/11 00:39:00;;;;;;;13.85;13.02;;;20.90;99.90;;;;;;5013202;28;20026;-51
2021/05/11 00:41:27;;;;;;;12.50;12.00;;;21.20;99.90;;;;;;5013147;28;20026;-54
2021/05/11 00:43:55;;;;;;;10.70;10.25;;;21.40;99.90;;;;;;5013746;28;20057;-50
2021/05/11 00:46:22;;;;;;;10.38;9.98;;;21.30;99.90;;;;;;5016945;28;20072;-51
2021/05/11 00:48:49;;;;;;;9.80;9.40;;;21.40;99.90;;;;;;5016781;28;20413;-50
2021/05/11 00:51:17;;;;;;;8.00;7.70;;;21.30;99.90;;;;;;5016893;28;20045;-52
2021/05/11 00:53:45;;;;;;;8.00;7.70;;;21.00;99.90;;;;;;5016741;28;20371;-48
2021/05/11 00:56:14;;;;;;;8.75;8.40;;;20.90;99.90;;;;;;5016906;28;20433;-53
2021/05/11 00:58:42;;;;;;;6.95;6.55;;;20.80;99.90;;;;;;5016666;28;20026;-53
2021/05/11 01:01:09;;;;;;;5.97;5.78;;;20.70;99.90;;;;;;5016606;28;20045;-54
2021/05/11 01:03:37;;;;;;;6.35;6.05;;;20.80;99.90;;;;;;5016629;28;20363;-54
2021/05/11 01:06:05;;;;;;;6.00;5.80;;;21.20;99.90;;;;;;5016540;28;20482;-50
2021/05/11 01:08:32;;;;;;;5.65;5.45;;;21.40;99.90;;;;;;5016536;28;20025;-53
2021/05/11 01:10:59;;;;;;;5.45;5.25;;;21.40;99.90;;;;;;5016505;28;20022;-50
2021/05/11 01:13:26;;;;;;;5.70;5.40;;;21.20;99.90;;;;;;5015204;28;20497;-53
2021/05/11 01:15:54;;;;;;;5.60;5.30;;;20.90;99.90;;;;;;5016491;28;20092;-50
2021/05/11 01:18:31;;;;;;;5.93;5.70;;;21.00;99.90;;;;;;5016329;28;20470;-51
2021/05/11 01:21:14;;;;;;;5.00;4.80;;;21.10;99.90;;;;;;5016009;28;20042;-49
2021/05/11 01:29:25;;;;;;;5.22;5.00;;;21.40;99.90;;;;;;5016492;28;20028;-50
2021/05/11 01:46:26;;;;;;;5.13;4.93;;;21.90;99.90;;;;;;5010248;28;20044;-50
2021/05/11 01:49:33;;;;;;;4.88;4.68;;;22.00;99.90;;;;;;5015651;28;20045;-51
2021/05/11 02:10:00;;;;;;;4.50;4.10;;;22.10;99.90;;;;;;4996487;28;20045;-52
2021/05/11 02:24:09;;;;;;;3.63;3.40;;;22.50;98.90;;;;;;5015192;28;20092;-56
2021/05/11 02:26:36;;;;;;;3.45;3.30;;;22.90;99.00;;;;;;5015188;28;20421;-54
2021/05/11 02:29:03;;;;;;;3.60;3.40;;;23.10;99.40;;;;;;5015303;28;20085;-54
2021/05/11 02:31:31;;;;;;;3.42;3.33;;;23.20;97.70;;;;;;5015106;28;20049;-54
2021/05/11 02:33:58;;;;;;;3.50;3.40;;;23.30;99.20;;;;;;5015113;28;20026;-52
2021/05/11 02:36:26;;;;;;;3.30;3.10;;;23.40;98.70;;;;;;5015060;28;20068;-52
2021/05/11 02:38:53;;;;;;;3.42;3.33;;;23.00;97.90;;;;;;5014880;28;20036;-55
2021/05/11 02:41:20;;;;;;;3.70;3.40;;;22.90;98.80;;;;;;5014986;28;20029;-50
2021/05/11 02:43:48;;;;;;;3.72;3.35;;;22.90;99.90;;;;;;5014755;28;20025;-54
2021/05/11 02:46:15;;;;;;;3.83;3.58;;;23.10;99.20;;;;;;5014742;28;20432;-53
2021/05/11 02:48:42;;;;;;;3.47;3.38;;;23.00;99.90;;;;;;5014730;28;20490;-56
2021/05/11 02:51:09;;;;;;;3.85;3.65;;;23.10;98.40;;;;;;5014732;28;20018;-55
2021/05/11 02:53:37;;;;;;;3.95;3.75;;;22.90;99.20;;;;;;5014652;28;20072;-53
2021/05/11 02:56:04;;;;;;;4.55;3.95;;;22.70;98.60;;;;;;5014532;28;20029;-50
2021/05/11 02:58:34;;;;;;;4.38;4.07;;;22.80;99.50;;;;;;5014479;28;20030;-50
2021/05/11 03:01:02;;;;;;;4.07;3.78;;;22.80;98.90;;;;;;5014528;28;20025;-52
2021/05/11 03:03:30;;;;;;;3.88;3.58;;;22.90;98.70;;;;;;5014268;28;20034;-54
2021/05/11 03:05:57;;;;;;;3.80;3.70;;;23.10;97.70;;;;;;5013135;28;20018;-51
2021/05/11 03:08:24;;;;;;;3.80;3.60;;;23.30;98.50;;;;;;5014113;28;20057;-54
2021/05/11 03:10:52;;;;;;;3.70;3.47;;;23.50;98.60;;;;;;5013095;28;20076;-55
2021/05/11 03:13:19;;;;;;;4.53;4.25;;;23.40;98.40;;;;;;5014242;28;20487;-56
2021/05/11 03:15:46;;;;;;;4.38;4.00;;;23.10;98.50;;;;;;5014331;28;20048;-55
2021/05/11 03:18:14;;;;;;;3.88;3.70;;;22.90;98.40;;;;;;5014201;28;20057;-53
2021/05/11 03:20:41;;;;;;;4.00;3.80;;;22.60;97.80;;;;;;5013704;28;20570;-53
2021/05/11 03:23:08;;;;;;;3.58;3.45;;;22.50;97.70;;;;;;5014106;28;20406;-51
2021/05/11 03:25:35;;;;;;;3.85;3.60;;;22.40;98.20;;;;;;5014000;28;20018;-55
2021/05/11 03:28:06;;;;;;;3.85;3.50;;;22.40;99.40;;;;;;5013957;28;20024;-55
2021/05/11 03:30:33;;;;;;;;;;;22.40;98.80;;;;;;5014422;28;20022;-53
2021/05/11 03:33:00;;;;;;;4.00;3.83;;;22.50;99.00;;;;;;5013853;28;19905;-55
2021/05/11 03:35:28;;;;;;;4.10;3.90;;;22.60;98.70;;;;;;5013841;28;20482;-53
2021/05/11 03:37:56;;;;;;;4.10;3.75;;;22.80;99.10;;;;;;5013872;28;20033;-53
2021/05/11 03:40:23;;;;;;;3.50;3.40;;;23.10;99.10;;;;;;5013819;28;20390;-52
2021/05/11 03:43:01;;;;;;;4.40;4.10;;;22.80;99.50;;;;;;5013769;28;20018;-52
2021/05/11 03:45:36;;;;;;;3.15;3.05;;;22.50;98.70;;;;;;5013646;28;20026;-55
2021/05/11 03:48:06;;;;;;;3.67;3.47;;;22.40;98.00;;;;;;5013526;28;20049;-52
2021/05/11 03:50:34;;;;;;;3.45;3.05;;;22.50;99.00;;;;;;5013705;28;20018;-56
2021/05/11 03:53:02;;;;;;;2.75;2.58;;;22.70;98.00;;;;;;5013587;28;20495;-55
2021/05/11 03:55:29;;;;;;;3.10;3.00;;;22.80;97.30;;;;;;5013639;28;20061;-54
2021/05/11 03:57:57;;;;;;;3.72;2.97;;;23.10;97.70;;;;;;5013468;28;20025;-56
2021/05/11 04:00:24;;;;;;;3.20;2.95;;;23.20;97.60;;;;;;5013534;28;20029;-56
2021/05/11 04:02:51;;;;;;;3.20;3.10;;;23.20;97.20;;;;;;5013539;28;20033;-52
2021/05/11 04:05:20;;;;;;;2.70;2.60;;;23.30;97.20;;;;;;5011921;28;20030;-53
2021/05/11 04:07:51;;;;;;;3.30;3.10;;;23.00;96.20;;;;;;5013583;28;20175;-55
2021/05/11 04:10:28;;;;;;;3.20;3.10;;;23.10;97.60;;;;;;5013564;28;20033;-58
2021/05/11 04:18:07;;;;;;;2.97;2.70;;;23.10;96.80;;;;;;5013111;28;20037;-51
2021/05/11 04:20:35;;;;;;;2.83;2.72;;;23.10;96.60;;;;;;5012848;28;20053;-54
2021/05/11 04:23:02;;;;;;;2.78;2.67;;;23.00;97.60;;;;;;5013237;28;20122;-52
2021/05/11 04:25:30;;;;;;;3.05;2.95;;;23.10;96.80;;;;;;5012995;28;20490;-54
2021/05/11 04:27:57;;;;;;;5.13;2.97;;;23.40;96.60;;;;;;5013433;28;20113;-51
2021/05/11 04:30:25;;;;;;;3.30;3.10;;;23.60;97.00;;;;;;5013101;28;20474;-52
2021/05/11 04:32:52;;;;;;;3.60;3.30;;;23.50;96.70;;;;;;5013019;28;20433;-51
2021/05/11 04:35:19;;;;;;;3.40;3.20;;;23.60;96.40;;;;;;5013038;28;20057;-56
2021/05/11 04:37:47;;;;;;;3.63;3.50;;;23.60;97.10;;;;;;5013013;28;20084;-55
2021/05/11 04:40:15;;;;;;;3.55;3.35;;;23.90;97.30;;;;;;5013035;28;20387;-55
2021/05/11 04:42:44;;;;;;;2.80;2.70;;;23.80;97.20;;;;;;5013204;28;20434;-54
2021/05/11 04:45:19;;;;;;;3.38;3.17;;;23.40;96.20;;;;;;5013102;28;20072;-56
2021/05/11 04:47:50;;;;;;;3.38;3.17;;;23.00;96.80;;;;;;5011584;28;20054;-52
2021/05/11 04:50:20;;;;;;;4.22;3.83;;;23.00;96.90;;;;;;5012856;28;20018;-56
2021/05/11 04:52:48;;;;;;;5.20;4.45;;;22.50;97.90;;;;;;5012854;28;20022;-55
2021/05/11 04:55:17;;;;;;;6.97;4.38;;;22.10;99.10;;;;;;5012818;28;20025;-51
2021/05/11 04:57:44;;;;;;;6.63;4.93;;;21.90;99.90;;;;;;5011740;28;20037;-53
2021/05/11 05:00:14;;;;;;;6.35;4.85;;;21.10;99.90;;;;;;5012901;28;20025;-54
2021/05/11 05:02:44;;;;;;;5.38;4.93;;;20.90;99.90;;;;;;5012902;28;20049;-51
2021/05/11 05:05:13;;;;;;;4.47;4.07;;;20.80;99.90;;;;;;5012866;28;20029;-49
2021/05/11 05:07:41;;;;;;;8.57;4.78;;;20.50;99.90;;;;;;5013013;28;20022;-53
2021/05/11 05:10:11;;;;;;;5.35;4.63;;;20.50;99.90;;;;;;5012797;28;20014;-51
2021/05/11 05:12:39;;;;;;;5.10;4.55;;;20.30;99.90;;;;;;5012683;28;20146;-53
2021/05/11 05:15:07;;;;;;;5.28;4.88;;;20.40;99.90;;;;;;5012717;28;20030;-55
2021/05/11 05:17:34;;;;;;;6.63;4.65;;;20.30;99.90;;;;;;5012753;28;20034;-50
2021/05/11 05:20:02;;;;;;;5.57;5.18;;;20.10;99.90;;;;;;5012393;28;20090;-50
2021/05/11 05:22:29;;;;;;;6.40;5.80;;;20.10;99.90;;;;;;5012697;28;20034;-53
2021/05/11 05:24:59;;;;;;;5.90;5.05;;;20.00;99.90;;;;;;5012603;28;20026;-54
2021/05/11 05:27:37;;;;;;;5.00;4.70;;;20.10;99.90;;;;;;5011345;28;20406;-53
2021/05/11 05:30:06;;;;;;;5.18;4.70;;;20.10;99.90;;;;;;5013566;28;20036;-50
2021/05/11 05:32:34;;;;;;;5.40;5.00;;;19.80;99.90;;;;;;5016004;28;20024;-54
2021/05/11 05:35:01;;;;;;;4.47;4.18;;;19.80;99.90;;;;;;5015940;28;20045;-52
2021/05/11 05:37:29;;;;;;;4.38;4.10;;;19.80;99.90;;;;;;5015955;28;20028;-54
2021/05/11 05:39:59;;;;;;;4.40;4.10;;;19.70;99.90;;;;;;5015806;28;20069;-54
2021/05/11 05:42:26;;;;;;;4.10;3.90;;;19.80;99.90;;;;;;5016182;28;20080;-55
2021/05/11 05:44:54;;;;;;;4.78;4.20;;;19.70;99.90;;;;;;5015853;28;20030;-53
2021/05/11 05:47:21;;;;;;;4.10;3.90;;;19.50;99.90;;;;;;5015873;28;20101;-50
2021/05/11 05:49:53;;;;;;;4.15;3.85;;;19.50;99.90;;;;;;5015649;28;20096;-54
2021/05/11 05:52:22;;;;;;;4.03;3.80;;;19.40;99.90;;;;;;5015665;28;20383;-51
2021/05/11 05:54:49;;;;;;;4.70;4.50;;;;;;;;;;5015738;28;20053;-54
2021/05/11 05:57:17;;;;;;;4.88;4.47;;;19.30;99.90;;;;;;5015718;28;20097;-52
2021/05/11 05:59:44;;;;;;;4.55;4.28;;;19.20;99.90;;;;;;5015828;28;20482;-51
2021/05/11 06:02:18;;;;;;;4.80;4.40;;;19.20;99.90;;;;;;5015489;28;20030;-54
2021/05/11 06:04:45;;;;;;;5.43;5.13;;;19.10;99.90;;;;;;5015405;28;20030;-54
2021/05/11 06:07:13;;;;;;;5.30;4.85;;;19.20;99.90;;;;;;5015764;28;20107;-55
2021/05/11 06:09:40;;;;;;;5.45;4.53;;;19.20;99.90;;;;;;5015471;28;20406;-53
2021/05/11 06:12:36;;;;;;;5.65;5.18;;;19.10;99.90;;;;;;5014176;28;20029;-54
2021/05/11 06:17:39;;;;;;;4.68;4.40;;;19.10;99.90;;;;;;5014615;28;20116;-56
2021/05/11 06:20:07;;;;;;;4.30;4.00;;;19.00;99.90;;;;;;5015305;28;20537;-54
2021/05/11 06:22:34;;;;;;;4.45;4.10;;;19.00;99.90;;;;;;5015240;28;20026;-56
2021/05/11 06:25:01;;;;;;;4.75;4.45;;;19.00;99.90;;;;;;5015180;28;20028;-53
2021/05/11 06:27:29;;;;;;;4.80;4.40;;;18.90;99.90;;;;;;5015137;28;20022;-52
2021/05/11 06:29:56;;;;;;;4.78;4.50;;;18.80;99.90;;;;;;5014733;28;20559;-54
2021/05/11 06:32:24;;;;;;;5.10;4.80;;;18.80;99.90;;;;;;5014630;28;20057;-53
2021/05/11 06:34:58;;;;;;;5.35;4.95;;;18.70;99.90;;;;;;5014928;28;20029;-55
2021/05/11 06:37:26;;;;;;;5.00;4.63;;;18.70;99.90;;;;;;5014603;28;20037;-54
2021/05/11 06:39:55;;;;;;;5.10;4.70;;;18.70;99.90;;;;;;5014634;28;20022;-53
2021/05/11 06:42:23;;;;;;;4.65;4.30;;;18.70;99.90;;;;;;5013669;28;20104;-52
2021/05/11 06:55:22;;;;;;;6.10;5.60;;;18.60;99.90;;;;;;5014535;28;20034;-54
2021/05/11 06:57:50;;;;;;;5.00;4.80;;;18.60;99.90;;;;;;5014616;28;20364;-56
2021/05/11 07:00:19;;;;;;;4.88;4.13;;;18.60;99.90;;;;;;5014583;28;20029;-54
2021/05/11 07:02:47;;;;;;;5.00;4.65;;;18.50;99.90;;;;;;5014465;28;20034;-50
2021/05/11 07:05:14;;;;;;;5.30;4.90;;;18.50;99.90;;;;;;5014341;28;20026;-51
2021/05/11 07:07:43;;;;;;;4.70;4.50;;;18.40;99.90;;;;;;5014241;28;20030;-54
2021/05/11 07:15:26;;;;;;;4.93;4.70;;;18.30;99.90;;;;;;5014503;28;20163;-52
2021/05/11 07:18:15;;;;;;;5.57;5.20;;;18.30;99.90;;;;;;5014287;28;20026;-53
2021/05/11 07:20:45;;;;;;;6.22;5.75;;;18.40;99.90;;;;;;5013880;28;20046;-49
2021/05/11 07:23:21;;;;;;;6.22;5.65;;;18.50;99.90;;;;;;5014134;28;20037;-49
2021/05/11 07:26:24;;;;;;;6.40;5.70;;;18.50;99.90;;;;;;5014031;28;20022;-51
2021/05/11 07:29:09;;;;;;;7.13;6.63;;;18.30;99.90;;;;;;5013920;28;20022;-53
2021/05/11 07:31:36;;;;;;;9.63;8.90;;;18.10;99.90;;;;;;5013853;28;20109;-55
2021/05/11 07:34:06;;;;;;;10.90;10.30;;;18.20;99.90;;;;;;5013652;28;20132;-54
2021/05/11 07:36:34;;;;;;;12.55;11.90;;;18.10;99.90;;;;;;5013901;28;20022;-51
2021/05/11 07:39:01;;;;;;;13.35;12.52;;;18.10;99.90;;;;;;5013755;28;20425;-52
2021/05/11 07:41:29;;;;;;;14.25;13.30;;;18.00;99.90;;;;;;5013830;28;20026;-54
2021/05/11 07:43:58;;;;;;;16.60;15.50;;;17.90;99.90;;;;;;5013765;28;20113;-54
2021/05/11 07:46:47;;;;;;;16.77;15.55;;;17.80;99.90;;;;;;5013571;28;20031;-54
2021/05/11 08:10:52;;;;;;;18.63;16.88;;;17.30;99.90;;;;;;5013576;28;20025;-55
2021/05/11 08:16:10;;;;;;;38.63;26.35;;;17.20;99.90;;;;;;5013396;28;20509;-54
2021/05/11 08:18:57;;;;;;;33.70;23.77;;;17.20;99.90;;;;;;5013173;28;20053;-55
2021/05/11 08:29:31;;;;;;;18.73;15.52;;;17.30;99.90;;;;;;5013639;28;20076;-53
2021/05/11 08:31:58;;;;;;;25.05;15.63;;;17.20;99.90;;;;;;5012012;28;20026;-50
2021/05/11 08:34:26;;;;;;;20.50;14.23;;;17.30;99.90;;;;;;5013040;28;20064;-53
2021/05/11 08:36:54;;;;;;;28.15;16.95;;;17.30;99.90;;;;;;5013106;28;20505;-55
2021/05/11 08:39:21;;;;;;;12.70;11.60;;;17.40;99.90;;;;;;5012998;28;20034;-55
2021/05/11 08:41:49;;;;;;;12.75;11.68;;;17.40;99.90;;;;;;5013047;28;20026;-54
2021/05/11 08:44:17;;;;;;;10.48;9.68;;;17.40;99.90;;;;;;5012961;28;20029;-54
2021/05/11 08:46:45;;;;;;;10.60;9.70;;;17.40;99.90;;;;;;5012986;28;20022;-50
2021/05/11 08:49:14;;;;;;;71.38;25.63;;;17.40;99.90;;;;;;5013187;28;20022;-52
2021/05/11 08:54:41;;;;;;;14.77;13.32;;;17.50;99.90;;;;;;5013412;28;20033;-51
2021/05/11 09:08:55;;;;;;;18.83;17.27;;;17.40;99.90;;;;;;5016635;28;20108;-55
2021/05/11 09:25:26;;;;;;;23.15;21.45;;;17.50;99.90;;;;;;5016324;28;20121;-49
2021/05/11 09:28:01;;;;;;;25.30;23.20;;;17.50;99.90;;;;;;5016371;28;20037;-48
2021/05/11 09:33:39;;;;;;;26.10;24.00;;;17.50;99.90;;;;;;5016157;28;20082;-54
2021/05/11 10:14:00;;;;;;;27.20;25.40;;;17.30;99.90;;;;;;5015314;28;20040;-54
2021/05/11 10:49:40;;;;;;;38.70;35.97;;;17.20;99.90;;;;;;5014677;28;20057;-52
2021/05/11 10:55:09;;;;;;;38.28;35.63;;;17.10;99.90;;;;;;5014418;28;20029;-53
2021/05/11 10:57:50;;;;;;;40.35;37.05;;;17.10;99.90;;;;;;5014263;28;20396;-55
2021/05/11 11:00:27;;;;;;;41.83;38.47;;;17.10;99.90;;;;;;5014371;28;20030;-56
2021/05/11 11:03:14;;;;;;;43.05;39.92;;;17.10;99.90;;;;;;5014233;28;20056;-55
2021/05/11 11:05:46;;;;;;;40.03;37.22;;;17.20;99.90;;;;;;5014111;28;20033;-52
2021/05/11 11:08:37;;;;;;;40.85;37.88;;;17.10;99.90;;;;;;5014113;28;20026;-51
2021/05/11 11:11:10;;;;;;;;;;;17.10;99.90;;;;;;5014585;28;20021;-54
2021/05/11 11:13:48;;;;;;;39.95;36.92;;;17.00;99.90;;;;;;5014025;28;20378;-54
2021/05/11 11:16:16;;;;;;;39.78;36.67;;;17.00;99.90;;;;;;5014186;28;20101;-54
2021/05/11 11:18:45;;;;;;;40.10;37.55;;;17.00;99.90;;;;;;5013822;28;20113;-53
2021/05/11 11:23:50;;;;;;;41.35;38.50;;;16.90;99.90;;;;;;5013979;28;20026;-52
2021/05/11 11:26:28;;;;;;;39.42;36.90;;;16.80;99.90;;;;;;5013767;28;20022;-53
2021/05/11 11:29:03;;;;;;;39.17;36.80;;;16.80;99.90;;;;;;5013762;28;20486;-52
2021/05/11 11:31:37;;;;;;;41.22;38.65;;;16.70;99.90;;;;;;5013822;28;20331;-54
2021/05/11 11:34:23;;;;;;;42.42;39.55;;;16.70;99.90;;;;;;5013841;28;20088;-53
2021/05/11 11:36:59;;;;;;;42.40;39.97;;;16.70;99.90;;;;;;5013751;28;20026;-52
2021/05/11 11:39:32;;;;;;;43.78;40.88;;;16.50;99.90;;;;;;5013719;28;20233;-51
2021/05/11 11:42:05;;;;;;;42.58;40.28;;;16.50;99.90;;;;;;5013661;28;20026;-53
2021/05/11 11:44:39;;;;;;;41.88;39.42;;;16.30;99.90;;;;;;5013759;28;20032;-53
2021/05/11 11:47:09;;;;;;;39.85;37.42;;;16.30;99.90;;;;;;5013977;28;20101;-52
2021/05/11 11:49:42;;;;;;;39.87;37.47;;;16.30;99.90;;;;;;5013644;28;20026;-54
2021/05/11 12:00:36;;;;;;;39.30;36.67;;;16.30;99.90;;;;;;4953018;29;20040;-54
2021/05/11 12:03:06;;;;;;;39.10;36.60;;;16.30;99.90;;;;;;4953132;28;20035;-54
2021/05/11 12:05:36;;;;;;;39.90;37.30;;;16.30;99.90;;;;;;4984314;28;20589;-51
2021/05/11 12:08:35;;;;;;;41.17;38.75;;;16.20;99.90;;;;;;5013188;28;20026;-51
2021/05/11 12:11:08;;;;;;;43.75;40.78;;;16.10;99.90;;;;;;5001365;28;20038;-55
2021/05/11 12:13:38;;;;;;;44.60;41.80;;;16.10;99.90;;;;;;5013204;28;20529;-51
2021/05/11 12:16:24;;;;;;;45.73;42.80;;;16.10;99.90;;;;;;5013291;28;20425;-53
2021/05/11 12:19:10;;;;;;;46.05;43.00;;;16.00;99.90;;;;;;5013220;28;20489;-56
2021/05/11 12:21:53;;;;;;;47.47;44.20;;;16.00;99.90;;;;;;5013249;28;20033;-52
2021/05/11 12:24:26;;;;;;;45.03;41.88;;;16.00;99.90;;;;;;5012041;28;20038;-55
2021/05/11 12:27:09;;;;;;;46.97;43.78;;;16.00;99.90;;;;;;5013102;28;20030;-53
2021/05/11 12:29:37;;;;;;;45.53;42.47;;;16.00;99.90;;;;;;5013107;28;20018;-55
2021/05/11 12:32:05;;;;;;;45.97;42.88;;;15.90;99.90;;;;;;5013150;28;20115;-51
2021/05/11 12:34:32;;;;;;;43.83;40.80;;;15.90;99.90;;;;;;5013092;28;20029;-50
2021/05/11 12:37:01;;;;;;;45.17;42.00;;;15.90;99.90;;;;;;5012958;28;20030;-54
2021/05/11 12:42:20;;;;;;;47.25;43.85;;;15.90;99.90;;;;;;5017013;28;20026;-54
2021/05/11 12:45:14;;;;;;;46.88;43.65;;;15.90;99.90;;;;;;5015592;28;20505;-51
2021/05/11 12:47:56;;;;;;;49.10;45.70;;;15.90;99.90;;;;;;5016961;28;20022;-52
2021/05/11 12:50:31;;;;;;;48.90;45.70;;;15.90;99.90;;;;;;5016991;28;20102;-52
2021/05/11 12:53:06;;;;;;;48.92;45.72;;;15.90;99.90;;;;;;5016718;28;20018;-52
2021/05/11 12:56:06;;;;;;;49.63;46.25;;;15.90;99.90;;;;;;5016759;28;20033;-53
2021/05/11 13:25:43;;;;;;;57.85;53.92;;;15.60;99.90;;;;;;4993039;28;20442;-56
2021/05/11 13:31:06;;;;;;;56.78;52.90;;;15.50;99.90;;;;;;5016620;28;20069;-52
2021/05/11 13:33:56;;;;;;;58.28;54.75;;;15.50;99.90;;;;;;5016097;28;20084;-50
2021/05/11 13:36:23;;;;;;;63.55;59.70;;;15.60;99.90;;;;;;5016178;28;20088;-52
2021/05/11 13:38:50;;;;;;;63.97;59.92;;;15.60;99.90;;;;;;5016206;28;20037;-56
2021/05/11 13:41:18;;;;;;;61.03;57.22;;;15.50;99.90;;;;;;5016137;28;20510;-55
2021/05/11 13:43:45;;;;;;;63.42;59.00;;;15.50;99.90;;;;;;5014604;28;20116;-53
2021/05/11 13:46:12;;;;;;;63.47;59.00;;;15.40;99.90;;;;;;5015958;28;20432;-50
2021/05/11 13:48:43;;;;;;;63.38;59.05;;;15.40;99.90;;;;;;5015882;28;20018;-54
2021/05/11 13:51:19;;;;;;;;;;;15.40;99.90;;;;;;5016160;28;20053;-56
2021/05/11 13:53:52;;;;;;;61.13;57.15;;;15.40;99.90;;;;;;5016045;28;20408;-57
2021/05/11 14:04:18;;;;;;;62.45;58.00;;;15.40;99.90;;;;;;5015504;28;20084;-54
2021/05/11 14:06:46;;;;;;;59.47;55.08;;;15.40;99.90;;;;;;5015446;28;20026;-55
2021/05/11 14:09:14;;;;;;;61.60;57.05;;;15.50;99.90;;;;;;5015423;28;20018;-54
2021/05/11 14:11:42;;;;;;;64.65;60.55;;;15.50;99.90;;;;;;5015473;28;20022;-53
2021/05/11 14:14:13;;;;;;;64.53;60.47;;;15.50;99.90;;;;;;5015468;28;20029;-50
2021/05/11 14:16:43;;;;;;;65.68;60.65;;;15.50;99.90;;;;;;5015461;28;20156;-52
2021/05/11 14:19:11;;;;;;;71.10;66.50;;;15.60;99.90;;;;;;5014985;28;20433;-51
2021/05/11 14:21:38;;;;;;;69.30;65.40;;;15.60;99.90;;;;;;5015278;28;20108;-51
2021/05/11 14:24:06;;;;;;;64.72;60.58;;;15.50;99.90;;;;;;5015026;28;20037;-51
2021/05/11 14:26:34;;;;;;;62.15;58.28;;;15.50;99.90;;;;;;5015224;28;20050;-50
2021/05/11 14:29:01;;;;;;;61.63;57.33;;;15.50;99.90;;;;;;5013874;28;20045;-53
2021/05/11 14:31:29;;;;;;;63.13;59.22;;;15.40;99.90;;;;;;5015026;28;20494;-51
2021/05/11 14:33:56;;;;;;;64.80;60.92;;;15.30;99.90;;;;;;5015089;28;20050;-53
2021/05/11 14:36:23;;;;;;;66.68;62.53;;;15.40;99.90;;;;;;5015062;28;20077;-54
2021/05/11 14:38:51;;;;;;;66.03;62.05;;;15.30;99.90;;;;;;5014866;28;20061;-51
2021/05/11 14:41:18;;;;;;;63.15;58.83;;;15.30;99.90;;;;;;5013634;28;20088;-50
2021/05/11 14:43:46;;;;;;;63.90;59.95;;;15.30;99.90;;;;;;5014720;28;20022;-53
2021/05/11 14:46:13;;;;;;;68.53;64.45;;;15.30;99.90;;;;;;5014794;28;20438;-55
2021/05/11 14:48:41;;;;;;;63.08;58.42;;;15.30;99.90;;;;;;5014826;28;20388;-55
2021/05/11 14:51:09;;;;;;;64.55;60.50;;;15.30;99.90;;;;;;5014775;28;20025;-55
2021/05/11 14:53:37;;;;;;;65.28;61.17;;;15.30;99.90;;;;;;5014664;28;20026;-55
2021/05/11 14:56:08;;;;;;;63.15;58.58;;;15.20;99.90;;;;;;5015074;28;20038;-51
2021/05/11 14:58:36;;;;;;;68.00;63.90;;;15.20;99.90;;;;;;5014596;28;20029;-53
2021/05/11 15:01:04;;;;;;;60.80;56.88;;;15.20;99.90;;;;;;5014389;28;20260;-52
2021/05/11 15:03:32;;;;;;;66.30;62.33;;;15.20;99.90;;;;;;5013824;28;20026;-53
2021/05/11 15:06:00;;;;;;;70.03;66.13;;;15.20;99.90;;;;;;5014370;28;20054;-52
2021/05/11 15:08:27;;;;;;;59.88;56.20;;;15.20;99.90;;;;;;5014435;28;20076;-54
2021/05/11 15:10:55;;;;;;;73.32;69.13;;;15.10;99.90;;;;;;5014824;28;20030;-50
2021/05/11 15:13:23;;;;;;;70.28;66.55;;;15.10;99.90;;;;;;5014421;28;20033;-53
2021/05/11 15:15:51;;;;;;;65.10;60.70;;;15.10;99.90;;;;;;5014244;28;20045;-52
2021/05/11 15:18:19;;;;;;;73.80;69.68;;;15.10;99.90;;;;;;5014233;28;20026;-52
2021/05/11 15:20:46;;;;;;;70.13;65.78;;;15.10;99.90;;;;;;5013889;28;20115;-52
2021/05/11 15:23:14;;;;;;;61.22;57.72;;;15.10;99.90;;;;;;5014113;28;20410;-52
2021/05/11 15:25:42;;;;;;;66.32;62.53;;;15.10;99.90;;;;;;5014094;28;20475;-54
2021/05/11 15:28:09;;;;;;;60.60;57.00;;;15.10;99.90;;;;;;5014163;28;20053;-52
2021/05/11 15:30:37;;;;;;;60.22;56.60;;;15.10;99.90;;;;;;5014236;28;20105;-50
2021/05/11 15:33:08;;;;;;;61.30;57.60;;;15.10;99.90;;;;;;5012699;28;20030;-51
2021/05/11 15:35:36;;;;;;;60.95;57.30;;;15.00;99.90;;;;;;5013967;28;20053;-51
2021/05/11 15:38:06;;;;;;;62.65;58.95;;;15.00;99.90;;;;;;5013908;28;20597;-50
2021/05/11 15:40:38;;;;;;;65.25;61.58;;;15.00;99.90;;;;;;5013949;28;20550;-54
2021/05/11 15:43:07;;;;;;;61.60;58.10;;;14.90;99.90;;;;;;5013864;28;20072;-53
2021/05/11 15:45:35;;;;;;;64.15;60.65;;;14.90;99.90;;;;;;5013726;28;20026;-56
2021/05/11 15:48:06;;;;;;;64.95;61.33;;;14.80;99.90;;;;;;5013818;28;20449;-53
2021/05/11 15:50:41;;;;;;;65.75;62.15;;;14.80;99.90;;;;;;5013805;28;20032;-55
2021/05/11 15:53:19;;;;;;;65.72;62.35;;;14.80;99.90;;;;;;5013761;28;20068;-51
2021/05/11 15:55:47;;;;;;;71.45;67.75;;;14.70;99.90;;;;;;5013597;28;20401;-53
2021/05/11 15:58:17;;;;;;;69.40;65.50;;;14.70;99.90;;;;;;5013676;28;20029;-53
2021/05/11 16:00:49;;;;;;;64.10;60.50;;;14.70;99.90;;;;;;5013827;28;20030;-50
2021/05/11 16:03:17;;;;;;;64.95;61.15;;;14.70;99.90;;;;;;5013519;28;20060;-53
2021/05/11 16:05:45;;;;;;;66.68;62.65;;;14.70;99.90;;;;;;5013306;28;20449;-53
2021/05/11 16:08:14;;;;;;;66.60;62.50;;;14.80;99.90;;;;;;5012192;28;20109;-52
2021/05/11 16:10:43;;;;;;;68.25;64.10;;;14.90;99.90;;;;;;5013563;28;20025;-51
2021/05/11 16:13:10;;;;;;;62.85;59.15;;;14.90;99.90;;;;;;5013416;28;20121;-54
2021/05/11 16:15:38;;;;;;;63.03;59.47;;;14.80;99.90;;;;;;5012438;28;20029;-54
2021/05/11 16:18:06;;;;;;;64.90;61.30;;;14.80;99.90;;;;;;5013280;28;20079;-54
2021/05/11 16:20:34;;;;;;;67.10;63.40;;;14.80;99.90;;;;;;5013182;28;20160;-53
2021/05/11 16:23:01;;;;;;;65.13;61.63;;;14.70;99.90;;;;;;5013303;28;20069;-51
2021/05/11 16:25:29;;;;;;;61.28;57.85;;;14.70;99.90;;;;;;5013187;28;20075;-51
2021/05/11 16:27:56;;;;;;;64.80;61.33;;;14.70;99.90;;;;;;5013194;28;20026;-51
2021/05/11 16:30:23;;;;;;;65.53;62.03;;;14.70;99.90;;;;;;5012153;28;20022;-54
2021/05/11 16:32:51;;;;;;;61.15;58.08;;;14.60;99.90;;;;;;5013177;28;20072;-52
2021/05/11 16:35:18;;;;;;;63.45;60.20;;;14.60;99.90;;;;;;5013116;28;20467;-50
2021/05/11 16:37:45;;;;;;;60.60;57.47;;;14.50;99.90;;;;;;5013080;28;20033;-51
2021/05/11 16:40:14;;;;;;;60.25;56.92;;;14.50;99.90;;;;;;5013180;28;20109;-51
2021/05/11 16:42:43;;;;;;;59.80;56.60;;;14.50;99.90;;;;;;5013084;28;20089;-51
2021/05/11 16:45:12;;;;;;;60.65;57.20;;;14.50;99.90;;;;;;5013007;28;20018;-53
2021/05/11 16:47:55;;;;;;;61.20;57.80;;;14.40;99.90;;;;;;5013114;28;20022;-52
2021/05/11 16:50:34;;;;;;;59.10;55.83;;;14.40;99.90;;;;;;5012835;28;20058;-51
2021/05/11 16:53:04;;;;;;;62.05;58.65;;;14.40;99.90;;;;;;5012669;28;20018;-54
2021/05/11 16:55:33;;;;;;;63.75;60.33;;;14.30;99.90;;;;;;5012591;28;20152;-51
2021/05/11 16:58:00;;;;;;;62.13;58.85;;;14.30;99.90;;;;;;5012671;28;20111;-51
2021/05/11 17:00:29;;;;;;;67.05;63.65;;;14.30;99.90;;;;;;5011348;28;20022;-53
2021/05/11 17:02:57;;;;;;;60.15;57.00;;;14.40;99.90;;;;;;5012567;28;20076;-50
2021/05/11 17:05:25;;;;;;;61.58;58.38;;;14.30;99.90;;;;;;5012788;28;20049;-55
2021/05/11 17:07:54;;;;;;;62.78;59.42;;;14.30;99.90;;;;;;5012780;28;20018;-55
2021/05/11 17:10:27;;;;;;;62.95;59.42;;;14.40;99.90;;;;;;5012793;28;20367;-56
2021/05/11 17:12:56;;;;;;;64.80;61.30;;;14.40;99.90;;;;;;5011576;28;20022;-54
2021/05/11 17:15:25;;;;;;;64.10;60.63;;;14.50;99.90;;;;;;5012871;28;20406;-53